Happy Bird — ZIRQ6 — position and weather

sailwx.info

Track history (hours):
 
Tides and Currents Weather Stations Pressure Air Temp Water Temp Dewpoint Dewpoint Depression Visibility Wind Speed Wind Dir Waves Ship Positions

Happy Bird

Last reported at 2017-Nov-16 02:35 UTC. Time now 2017-Nov-21 02:31 UTC.
Position N 29°30' W 094°52'.

Length 119 m; draft 4.6 m.

Type: Tanker. MMSI: 235513000.

Date/timePositionNaut miles runAvg speedWind from/ knotsBaromVisibWave heightAir tempDewpointWater temp
2017-Nov-16 02:35N 29°30' W 094°52'113.4
2017-Nov-16 02:30N 29°31' W 094°53'713.4
2017-Nov-16 02:00N 29°36' W 094°57'612.5
2017-Nov-16 01:30N 29°42' W 094°60'4 8.3
2017-Nov-16 01:00N 29°44' W 095°03'3 5.5
2017-Nov-16 00:30N 29°44' W 095°07'1 0.0
2017-Nov-14 16:00N 29°44' W 095°08'2 2.9
2017-Nov-14 15:26N 29°45' W 095°06'2 5.0
2017-Nov-14 14:59N 29°44' W 095°04'4 8.6
2017-Nov-14 14:30N 29°42' W 094°60'5 9.8
2017-Nov-14 14:00N 29°37' W 094°58'611.9
2017-Nov-14 13:30N 29°32' W 094°54'  
2017-Nov-09 14:47N 10°20' W 075°31'0 0.0
2017-Nov-09 14:29N 10°20' W 075°31'0 0.0
2017-Nov-09 13:50N 10°20' W 075°31'0 0.0
2017-Nov-09 13:29N 10°20' W 075°31'0 0.0
2017-Nov-09 12:56N 10°20' W 075°31'0 0.0
2017-Nov-09 12:30N 10°20' W 075°31'1 1.4
2017-Nov-09 12:00N 10°20' W 075°31'1 1.4
2017-Nov-09 11:30N 10°19' W 075°32'0 0.1
2017-Nov-09 11:00N 10°19' W 075°32'0 0.0
2017-Nov-09 10:30N 10°19' W 075°32'0 0.0
2017-Nov-09 09:57N 10°19' W 075°32'0 0.0
2017-Nov-09 09:30N 10°19' W 075°32'0 0.0
2017-Nov-09 08:09N 10°19' W 075°32'0 0.0
2017-Nov-09 08:00N 10°19' W 075°32'0 0.0
2017-Nov-09 07:27N 10°19' W 075°32'0 0.0
2017-Nov-09 07:00N 10°19' W 075°32'0 0.0
2017-Nov-09 06:30N 10°19' W 075°32'0 0.0
2017-Nov-09 05:57N 10°19' W 075°32'0 0.0
2017-Nov-09 05:30N 10°19' W 075°32'0 0.1
2017-Nov-09 05:00N 10°19' W 075°32'0 0.1
2017-Nov-09 04:30N 10°19' W 075°32'0 0.0
2017-Nov-09 04:00N 10°19' W 075°32'0 0.0
2017-Nov-09 03:30N 10°19' W 075°32'0 0.0
2017-Nov-09 03:00N 10°19' W 075°32'0 0.0
2017-Nov-09 02:30N 10°19' W 075°32'0 0.0
2017-Nov-09 02:00N 10°19' W 075°32'0 0.0
2017-Nov-09 01:30N 10°19' W 075°32'0 0.0
2017-Nov-09 01:00N 10°19' W 075°32'0 0.0
2017-Nov-09 00:30N 10°19' W 075°32'0 0.0
2017-Nov-08 23:57N 10°19' W 075°32'0 0.0
2017-Nov-08 23:30N 10°19' W 075°32'0 0.0
2017-Nov-08 22:57N 10°19' W 075°32'0 0.0
2017-Nov-08 22:30N 10°19' W 075°32'0 0.0
2017-Nov-08 22:00N 10°19' W 075°32'0 0.0
2017-Nov-08 21:30N 10°19' W 075°32'0 0.0
2017-Nov-08 21:00N 10°19' W 075°32'0 0.0
2017-Nov-08 20:30N 10°19' W 075°32'0 0.0
2017-Nov-08 20:00N 10°19' W 075°32'0 0.0
2017-Nov-08 19:30N 10°19' W 075°32'0 0.0
2017-Nov-08 19:00N 10°19' W 075°32'0 0.0
2017-Nov-08 18:27N 10°19' W 075°32'0 0.0
2017-Nov-08 18:00N 10°19' W 075°32'0 0.0
2017-Nov-08 17:30N 10°19' W 075°32'0 0.0
2017-Nov-08 17:00N 10°19' W 075°32'0 0.0
2017-Nov-08 16:30N 10°19' W 075°32'0 0.0
2017-Nov-08 16:00N 10°19' W 075°32'0 0.0
2017-Nov-08 15:30N 10°19' W 075°32'0 0.0
2017-Nov-08 15:00N 10°19' W 075°32'0 0.1
2017-Nov-08 14:30N 10°19' W 075°32'0 0.0
2017-Nov-08 14:00N 10°19' W 075°32'0 0.0
2017-Nov-08 13:30N 10°19' W 075°32'0 0.0
2017-Nov-08 13:00N 10°19' W 075°32'0 0.0
2017-Nov-08 12:30N 10°19' W 075°32'0 0.0
2017-Nov-08 12:00N 10°19' W 075°32'0 0.0
2017-Nov-08 11:30N 10°19' W 075°32'0 0.1
2017-Nov-08 11:00N 10°19' W 075°32'0 0.0
2017-Nov-08 10:30N 10°19' W 075°32'0 0.0
2017-Nov-08 10:00N 10°19' W 075°32'0 0.0
2017-Nov-08 09:30N 10°19' W 075°32'0 0.0
2017-Nov-08 08:05N 10°19' W 075°32'0 0.1
2017-Nov-08 07:59N 10°19' W 075°32'0 0.0
2017-Nov-08 07:29N 10°19' W 075°32'0 0.0
2017-Nov-08 06:59N 10°19' W 075°32'0 0.1
2017-Nov-08 06:29N 10°19' W 075°32'0 0.1
2017-Nov-08 05:59N 10°19' W 075°32'0 0.0
2017-Nov-08 05:26N 10°19' W 075°32'0 0.0
2017-Nov-08 04:56N 10°19' W 075°32'0 0.0
2017-Nov-08 04:29N 10°19' W 075°32'0 0.0
2017-Nov-08 03:59N 10°19' W 075°32'0 0.0
2017-Nov-08 03:29N 10°19' W 075°32'0 0.0
2017-Nov-08 02:59N 10°19' W 075°32'0 0.0
2017-Nov-08 02:29N 10°19' W 075°32'0 0.0
2017-Nov-08 01:56N 10°19' W 075°32'0 0.1
2017-Nov-08 01:29N 10°19' W 075°32'0 0.0
2017-Nov-08 00:59N 10°19' W 075°32'0 0.0
2017-Nov-08 00:29N 10°19' W 075°32'0 0.0
2017-Nov-07 23:59N 10°19' W 075°32'0 0.0
2017-Nov-07 23:29N 10°19' W 075°32'0 0.0
2017-Nov-07 22:59N 10°19' W 075°32'0 0.0
2017-Nov-07 22:26N 10°19' W 075°32'0 0.0
2017-Nov-07 21:56N 10°19' W 075°32'0 0.1
2017-Nov-07 21:29N 10°19' W 075°32'0 0.0
2017-Nov-07 20:59N 10°19' W 075°32'0 0.1
2017-Nov-07 20:29N 10°19' W 075°32'0 0.0
2017-Nov-07 19:59N 10°19' W 075°32'0 0.0
2017-Nov-07 19:26N 10°19' W 075°32'0 0.0
2017-Nov-07 18:59N 10°19' W 075°32'0 0.0
2017-Nov-07 18:26N 10°19' W 075°32'0 0.0
2017-Nov-07 17:59N 10°19' W 075°32'0 0.0
2017-Nov-07 17:26N 10°19' W 075°32'0 0.1
2017-Nov-07 16:58N 10°19' W 075°32'0 0.2
2017-Nov-07 16:25N 10°19' W 075°32'1 2.1
2017-Nov-07 15:58N 10°20' W 075°31'0 0.0
2017-Nov-07 15:25N 10°20' W 075°31'0 0.0
2017-Nov-07 14:55N 10°20' W 075°31'0 0.0
2017-Nov-07 14:25N 10°20' W 075°31'0 0.0
2017-Nov-07 13:55N 10°20' W 075°31'0 0.0
2017-Nov-07 13:28N 10°20' W 075°31'0 0.0
2017-Nov-07 12:55N 10°20' W 075°31'0 0.0
2017-Nov-07 12:25N 10°20' W 075°31'0 0.0
2017-Nov-07 11:58N 10°20' W 075°31'0 0.0
2017-Nov-07 11:19N 10°20' W 075°31'0 0.0
2017-Nov-07 10:58N 10°20' W 075°31'0 0.0
2017-Nov-07 10:25N 10°20' W 075°31'0 0.0
2017-Nov-07 09:55N 10°20' W 075°31'0 0.0
2017-Nov-07 09:25N 10°20' W 075°31'0 0.0
2017-Nov-07 08:01N 10°20' W 075°31'0 0.0
2017-Nov-07 07:55N 10°20' W 075°31'0 0.0
2017-Nov-07 07:25N 10°20' W 075°31'0 0.0
2017-Nov-07 06:58N 10°20' W 075°31'0 0.0
2017-Nov-07 06:25N 10°20' W 075°31'0 0.0
2017-Nov-07 05:58N 10°20' W 075°31'0 0.0
2017-Nov-07 05:25N 10°20' W 075°31'0 0.0
2017-Nov-07 04:55N 10°20' W 075°31'0 0.0
2017-Nov-07 04:25N 10°20' W 075°31'0 0.0
2017-Nov-07 03:55N 10°20' W 075°31'0 0.0
2017-Nov-07 03:28N 10°20' W 075°31'0 0.0
2017-Nov-07 02:55N 10°20' W 075°31'0 0.0
2017-Nov-07 02:25N 10°20' W 075°31'0 0.0
2017-Nov-07 01:55N 10°20' W 075°31'0 0.0
2017-Nov-07 01:25N 10°20' W 075°31'0 0.0
2017-Nov-07 01:01N 10°20' W 075°31'0 0.0
2017-Nov-07 00:31N 10°20' W 075°31'0 0.0
2017-Nov-07 00:00N 10°20' W 075°31'0 0.0
2017-Nov-06 23:30N 10°20' W 075°31'0 0.0
2017-Nov-06 23:00N 10°20' W 075°31'0 0.0
2017-Nov-06 22:30N 10°20' W 075°31'0 0.0
2017-Nov-06 22:00N 10°20' W 075°31'0 0.0
2017-Nov-06 21:30N 10°20' W 075°31'0 0.0
2017-Nov-06 21:00N 10°20' W 075°31'0 0.0
2017-Nov-06 20:30N 10°20' W 075°31'  
Track history (hours):
 
Tides and Currents Weather Stations Pressure Air Temp Water Temp Dewpoint Dewpoint Depression Visibility Wind Speed Wind Dir Waves Ship Positions

Happy Bird

Last reported at 2017-Nov-16 02:35 UTC. Time now 2017-Nov-21 02:31 UTC.
Position N 29°30' W 094°52'.

Length 119 m; draft 4.6 m.

Type: Tanker. MMSI: 235513000.

Date/timePositionNaut miles runAvg speedWind from/ knotsBaromVisibWave heightAir tempDewpointWater temp
2017-Nov-16 02:35N 29°30' W 094°52'113.4
2017-Nov-16 02:30N 29°31' W 094°53'713.4
2017-Nov-16 02:00N 29°36' W 094°57'612.5
2017-Nov-16 01:30N 29°42' W 094°60'4 8.3
2017-Nov-16 01:00N 29°44' W 095°03'3 5.5
2017-Nov-16 00:30N 29°44' W 095°07'1 0.0
2017-Nov-14 16:00N 29°44' W 095°08'2 2.9
2017-Nov-14 15:26N 29°45' W 095°06'2 5.0
2017-Nov-14 14:59N 29°44' W 095°04'4 8.6
2017-Nov-14 14:30N 29°42' W 094°60'5 9.8
2017-Nov-14 14:00N 29°37' W 094°58'611.9
2017-Nov-14 13:30N 29°32' W 094°54'  
2017-Nov-09 14:47N 10°20' W 075°31'0 0.0
2017-Nov-09 14:29N 10°20' W 075°31'0 0.0
2017-Nov-09 13:50N 10°20' W 075°31'0 0.0
2017-Nov-09 13:29N 10°20' W 075°31'0 0.0
2017-Nov-09 12:56N 10°20' W 075°31'0 0.0
2017-Nov-09 12:30N 10°20' W 075°31'1 1.4
2017-Nov-09 12:00N 10°20' W 075°31'1 1.4
2017-Nov-09 11:30N 10°19' W 075°32'0 0.1
2017-Nov-09 11:00N 10°19' W 075°32'0 0.0
2017-Nov-09 10:30N 10°19' W 075°32'0 0.0
2017-Nov-09 09:57N 10°19' W 075°32'0 0.0
2017-Nov-09 09:30N 10°19' W 075°32'0 0.0
2017-Nov-09 08:09N 10°19' W 075°32'0 0.0
2017-Nov-09 08:00N 10°19' W 075°32'0 0.0
2017-Nov-09 07:27N 10°19' W 075°32'0 0.0
2017-Nov-09 07:00N 10°19' W 075°32'0 0.0
2017-Nov-09 06:30N 10°19' W 075°32'0 0.0
2017-Nov-09 05:57N 10°19' W 075°32'0 0.0
2017-Nov-09 05:30N 10°19' W 075°32'0 0.1
2017-Nov-09 05:00N 10°19' W 075°32'0 0.1
2017-Nov-09 04:30N 10°19' W 075°32'0 0.0
2017-Nov-09 04:00N 10°19' W 075°32'0 0.0
2017-Nov-09 03:30N 10°19' W 075°32'0 0.0
2017-Nov-09 03:00N 10°19' W 075°32'0 0.0
2017-Nov-09 02:30N 10°19' W 075°32'0 0.0
2017-Nov-09 02:00N 10°19' W 075°32'0 0.0
2017-Nov-09 01:30N 10°19' W 075°32'0 0.0
2017-Nov-09 01:00N 10°19' W 075°32'0 0.0
2017-Nov-09 00:30N 10°19' W 075°32'0 0.0
2017-Nov-08 23:57N 10°19' W 075°32'0 0.0
2017-Nov-08 23:30N 10°19' W 075°32'0 0.0
2017-Nov-08 22:57N 10°19' W 075°32'0 0.0
2017-Nov-08 22:30N 10°19' W 075°32'0 0.0
2017-Nov-08 22:00N 10°19' W 075°32'0 0.0
2017-Nov-08 21:30N 10°19' W 075°32'0 0.0
2017-Nov-08 21:00N 10°19' W 075°32'0 0.0
2017-Nov-08 20:30N 10°19' W 075°32'0 0.0
2017-Nov-08 20:00N 10°19' W 075°32'0 0.0
2017-Nov-08 19:30N 10°19' W 075°32'0 0.0
2017-Nov-08 19:00N 10°19' W 075°32'0 0.0
2017-Nov-08 18:27N 10°19' W 075°32'0 0.0
2017-Nov-08 18:00N 10°19' W 075°32'0 0.0
2017-Nov-08 17:30N 10°19' W 075°32'0 0.0
2017-Nov-08 17:00N 10°19' W 075°32'0 0.0
2017-Nov-08 16:30N 10°19' W 075°32'0 0.0
2017-Nov-08 16:00N 10°19' W 075°32'0 0.0
2017-Nov-08 15:30N 10°19' W 075°32'0 0.0
2017-Nov-08 15:00N 10°19' W 075°32'0 0.1
2017-Nov-08 14:30N 10°19' W 075°32'0 0.0
2017-Nov-08 14:00N 10°19' W 075°32'0 0.0
2017-Nov-08 13:30N 10°19' W 075°32'0 0.0
2017-Nov-08 13:00N 10°19' W 075°32'0 0.0
2017-Nov-08 12:30N 10°19' W 075°32'0 0.0
2017-Nov-08 12:00N 10°19' W 075°32'0 0.0
2017-Nov-08 11:30N 10°19' W 075°32'0 0.1
2017-Nov-08 11:00N 10°19' W 075°32'0 0.0
2017-Nov-08 10:30N 10°19' W 075°32'0 0.0
2017-Nov-08 10:00N 10°19' W 075°32'0 0.0
2017-Nov-08 09:30N 10°19' W 075°32'0 0.0
2017-Nov-08 08:05N 10°19' W 075°32'0 0.1
2017-Nov-08 07:59N 10°19' W 075°32'0 0.0
2017-Nov-08 07:29N 10°19' W 075°32'0 0.0
2017-Nov-08 06:59N 10°19' W 075°32'0 0.1
2017-Nov-08 06:29N 10°19' W 075°32'0 0.1
2017-Nov-08 05:59N 10°19' W 075°32'0 0.0
2017-Nov-08 05:26N 10°19' W 075°32'0 0.0
2017-Nov-08 04:56N 10°19' W 075°32'0 0.0
2017-Nov-08 04:29N 10°19' W 075°32'0 0.0
2017-Nov-08 03:59N 10°19' W 075°32'0 0.0
2017-Nov-08 03:29N 10°19' W 075°32'0 0.0
2017-Nov-08 02:59N 10°19' W 075°32'0 0.0
2017-Nov-08 02:29N 10°19' W 075°32'0 0.0
2017-Nov-08 01:56N 10°19' W 075°32'0 0.1
2017-Nov-08 01:29N 10°19' W 075°32'0 0.0
2017-Nov-08 00:59N 10°19' W 075°32'0 0.0
2017-Nov-08 00:29N 10°19' W 075°32'0 0.0
2017-Nov-07 23:59N 10°19' W 075°32'0 0.0
2017-Nov-07 23:29N 10°19' W 075°32'0 0.0
2017-Nov-07 22:59N 10°19' W 075°32'0 0.0
2017-Nov-07 22:26N 10°19' W 075°32'0 0.0
2017-Nov-07 21:56N 10°19' W 075°32'0 0.1
2017-Nov-07 21:29N 10°19' W 075°32'0 0.0
2017-Nov-07 20:59N 10°19' W 075°32'0 0.1
2017-Nov-07 20:29N 10°19' W 075°32'0 0.0
2017-Nov-07 19:59N 10°19' W 075°32'0 0.0
2017-Nov-07 19:26N 10°19' W 075°32'0 0.0
2017-Nov-07 18:59N 10°19' W 075°32'0 0.0
2017-Nov-07 18:26N 10°19' W 075°32'0 0.0
2017-Nov-07 17:59N 10°19' W 075°32'0 0.0
2017-Nov-07 17:26N 10°19' W 075°32'0 0.1
2017-Nov-07 16:58N 10°19' W 075°32'0 0.2
2017-Nov-07 16:25N 10°19' W 075°32'1 2.1
2017-Nov-07 15:58N 10°20' W 075°31'0 0.0
2017-Nov-07 15:25N 10°20' W 075°31'0 0.0
2017-Nov-07 14:55N 10°20' W 075°31'0 0.0
2017-Nov-07 14:25N 10°20' W 075°31'0 0.0
2017-Nov-07 13:55N 10°20' W 075°31'0 0.0
2017-Nov-07 13:28N 10°20' W 075°31'0 0.0
2017-Nov-07 12:55N 10°20' W 075°31'0 0.0
2017-Nov-07 12:25N 10°20' W 075°31'0 0.0
2017-Nov-07 11:58N 10°20' W 075°31'0 0.0
2017-Nov-07 11:19N 10°20' W 075°31'0 0.0
2017-Nov-07 10:58N 10°20' W 075°31'0 0.0
2017-Nov-07 10:25N 10°20' W 075°31'0 0.0
2017-Nov-07 09:55N 10°20' W 075°31'0 0.0
2017-Nov-07 09:25N 10°20' W 075°31'0 0.0
2017-Nov-07 08:01N 10°20' W 075°31'0 0.0
2017-Nov-07 07:55N 10°20' W 075°31'0 0.0
2017-Nov-07 07:25N 10°20' W 075°31'0 0.0
2017-Nov-07 06:58N 10°20' W 075°31'0 0.0
2017-Nov-07 06:25N 10°20' W 075°31'0 0.0
2017-Nov-07 05:58N 10°20' W 075°31'0 0.0
2017-Nov-07 05:25N 10°20' W 075°31'0 0.0
2017-Nov-07 04:55N 10°20' W 075°31'0 0.0
2017-Nov-07 04:25N 10°20' W 075°31'0 0.0
2017-Nov-07 03:55N 10°20' W 075°31'0 0.0
2017-Nov-07 03:28N 10°20' W 075°31'0 0.0
2017-Nov-07 02:55N 10°20' W 075°31'0 0.0
2017-Nov-07 02:25N 10°20' W 075°31'0 0.0
2017-Nov-07 01:55N 10°20' W 075°31'0 0.0
2017-Nov-07 01:25N 10°20' W 075°31'0 0.0
2017-Nov-07 01:01N 10°20' W 075°31'0 0.0
2017-Nov-07 00:31N 10°20' W 075°31'0 0.0
2017-Nov-07 00:00N 10°20' W 075°31'0 0.0
2017-Nov-06 23:30N 10°20' W 075°31'0 0.0
2017-Nov-06 23:00N 10°20' W 075°31'0 0.0
2017-Nov-06 22:30N 10°20' W 075°31'0 0.0
2017-Nov-06 22:00N 10°20' W 075°31'0 0.0
2017-Nov-06 21:30N 10°20' W 075°31'0 0.0
2017-Nov-06 21:00N 10°20' W 075°31'0 0.0
2017-Nov-06 20:30N 10°20' W 075°31'  

Dump ship's entire track history